createdAt,value
2018-06-17T00:00:29.497Z,15.40
2018-06-17T00:03:01.528Z,18.13
2018-06-17T00:05:36.469Z,15.27
2018-06-17T00:10:42.678Z,13.80
2018-06-17T00:13:11.633Z,14.40
2018-06-17T00:15:40.630Z,18.10
2018-06-17T00:18:13.506Z,13.53
2018-06-17T00:20:48.656Z,14.20
2018-06-17T00:23:26.282Z,14.00
2018-06-17T00:26:00.847Z,17.87
2018-06-17T00:28:29.911Z,17.67
2018-06-17T00:30:58.886Z,21.03
2018-06-17T00:33:28.187Z,15.40
2018-06-17T00:36:00.915Z,19.80
2018-06-17T00:38:38.435Z,18.27
2018-06-17T00:41:13.564Z,21.87
2018-06-17T00:43:49.144Z,22.37
2018-06-17T00:46:18.036Z,17.53
2018-06-17T00:48:47.934Z,18.77
2018-06-17T00:51:16.963Z,24.97
2018-06-17T00:56:28.534Z,16.10
2018-06-17T00:59:04.381Z,20.93
2018-06-17T01:01:36.987Z,16.03
2018-06-17T01:04:05.983Z,13.77
2018-06-17T01:06:34.970Z,17.10
2018-06-17T01:09:04.116Z,11.47
2018-06-17T01:11:34.752Z,16.33
2018-06-17T01:14:08.955Z,21.73
2018-06-17T01:16:40.896Z,19.07
2018-06-17T01:19:13.871Z,20.33
2018-06-17T01:21:42.914Z,21.40
2018-06-17T01:24:11.839Z,21.10
2018-06-17T01:26:40.858Z,19.60
2018-06-17T01:29:13.095Z,16.47
2018-06-17T01:31:49.347Z,21.87
2018-06-17T01:34:22.157Z,16.47
2018-06-17T01:36:54.492Z,26.87
2018-06-17T01:39:26.133Z,22.97
2018-06-17T01:41:55.080Z,17.33
2018-06-17T01:44:23.975Z,22.67
2018-06-17T01:46:52.966Z,16.90
2018-06-17T01:49:29.852Z,27.57
2018-06-17T01:52:02.456Z,23.33
2018-06-17T01:54:34.495Z,18.60
2018-06-17T01:57:06.576Z,19.13
2018-06-17T01:59:45.549Z,27.60
2018-06-17T02:02:21.978Z,25.40
2018-06-17T02:04:58.678Z,18.83
2018-06-17T02:07:32.677Z,21.40
2018-06-17T02:10:06.647Z,22.27
2018-06-17T02:12:35.742Z,33.93
2018-06-17T02:15:09.125Z,23.40
2018-06-17T02:17:49.824Z,20.57
2018-06-17T02:20:21.866Z,16.30
2018-06-17T02:22:54.131Z,17.80
2018-06-17T02:25:23.025Z,24.73
2018-06-17T02:27:51.926Z,24.67
2018-06-17T02:30:20.782Z,19.90
2018-06-17T02:32:50.114Z,16.20
2018-06-17T02:35:21.259Z,25.67
2018-06-17T02:37:57.786Z,15.33
2018-06-17T02:40:30.841Z,15.53
2018-06-17T02:43:08.300Z,19.60
2018-06-17T02:45:45.478Z,18.83
2018-06-17T02:48:19.398Z,20.67
2018-06-17T02:50:53.503Z,22.50
2018-06-17T02:53:28.398Z,17.00
2018-06-17T02:55:58.210Z,20.07
2018-06-17T02:58:36.821Z,20.43
2018-06-17T03:09:43.007Z,18.70
2018-06-17T03:12:11.869Z,22.90
2018-06-17T03:14:40.812Z,21.03
2018-06-17T03:28:36.281Z,16.87
2018-06-17T03:31:10.323Z,19.03
2018-06-17T03:33:45.110Z,20.30
2018-06-17T03:36:28.328Z,13.27
2018-06-17T03:39:04.859Z,27.00
2018-06-17T03:47:17.368Z,18.57
2018-06-17T03:50:01.004Z,20.03
2018-06-17T03:52:29.990Z,20.80
2018-06-17T03:54:58.947Z,22.23
2018-06-17T03:57:28.008Z,20.37
2018-06-17T04:00:06.211Z,16.33
2018-06-17T04:05:21.235Z,17.70
2018-06-17T04:07:58.609Z,19.73
2018-06-17T04:10:40.437Z,14.63
2018-06-17T04:13:09.579Z,16.30
2018-06-17T04:15:38.808Z,20.23
2018-06-17T04:18:08.681Z,22.37
2018-06-17T04:32:49.347Z,18.07
2018-06-17T04:35:18.310Z,17.30
2018-06-17T04:37:47.260Z,17.40
2018-06-17T05:01:37.410Z,18.97
2018-06-17T05:04:06.486Z,22.17
2018-06-17T05:06:35.504Z,15.40
2018-06-17T05:09:06.624Z,23.23
2018-06-17T05:29:52.029Z,28.27
2018-06-17T05:32:20.947Z,22.97
2018-06-17T05:34:49.918Z,12.13
2018-06-17T05:46:26.922Z,20.73
2018-06-17T05:48:56.262Z,19.33
2018-06-17T05:51:25.313Z,15.30
2018-06-17T05:53:54.690Z,19.23
2018-06-17T06:08:41.554Z,25.13
2018-06-17T06:11:10.826Z,18.93
2018-06-17T06:13:39.762Z,15.20
2018-06-17T06:16:09.040Z,23.50
2018-06-17T06:30:37.945Z,25.13
2018-06-17T06:33:06.878Z,17.90
2018-06-17T06:35:35.884Z,16.40
2018-06-17T06:41:06.168Z,26.80
2018-06-17T06:48:49.583Z,22.10
2018-06-17T06:54:05.624Z,21.03
2018-06-17T06:56:50.072Z,22.77
2018-06-17T06:59:22.244Z,28.00
2018-06-17T07:02:06.000Z,14.63
2018-06-17T07:04:46.558Z,22.33
2018-06-17T07:07:26.404Z,23.60
2018-06-17T07:10:12.776Z,17.40
2018-06-17T07:12:41.835Z,16.63
2018-06-17T07:15:17.355Z,23.10
2018-06-17T07:18:08.731Z,14.87
2018-06-17T07:32:12.605Z,16.70
2018-06-17T07:34:42.205Z,17.47
2018-06-17T07:37:12.725Z,17.47
2018-06-17T08:11:14.107Z,24.93
2018-06-17T08:13:45.687Z,9.70
2018-06-17T08:16:14.966Z,21.30
2018-06-17T08:18:46.655Z,12.77
2018-06-17T08:21:22.555Z,14.67
2018-06-17T08:26:58.308Z,16.07
2018-06-17T08:30:13.298Z,15.03
2018-06-17T08:32:50.737Z,19.50
2018-06-17T08:35:29.957Z,14.43
2018-06-17T08:38:13.894Z,14.60
2018-06-17T09:10:32.802Z,8.33
2018-06-17T09:13:02.566Z,10.27
2018-06-17T09:15:31.638Z,10.00
2018-06-17T09:18:03.850Z,11.47
2018-06-17T09:27:29.522Z,10.17
2018-06-17T09:29:59.852Z,9.37
2018-06-17T09:32:33.577Z,7.60
2018-06-17T09:35:06.646Z,12.70
2018-06-17T09:37:45.940Z,9.10
2018-06-17T09:43:14.794Z,9.63
2018-06-17T09:45:43.937Z,8.07
2018-06-17T09:48:13.851Z,11.27
2018-06-17T09:51:01.555Z,11.87
2018-06-17T10:05:37.690Z,6.50
2018-06-17T10:08:06.739Z,7.97
2018-06-17T10:10:54.869Z,5.83
2018-06-17T10:22:32.420Z,7.27
2018-06-17T10:25:01.833Z,6.10
2018-06-17T10:27:31.197Z,2.43
2018-06-17T10:42:11.574Z,5.13
2018-06-17T10:44:41.031Z,5.33
2018-06-17T10:47:10.217Z,5.47
2018-06-17T11:02:01.033Z,5.23
2018-06-17T11:04:30.204Z,4.17
2018-06-17T11:06:59.853Z,2.53
2018-06-17T11:21:39.826Z,4.90
2018-06-17T11:24:08.859Z,4.10
2018-06-17T11:26:39.015Z,2.47
2018-06-17T11:41:20.573Z,2.83
2018-06-17T11:43:49.521Z,2.77
2018-06-17T11:46:19.922Z,2.50
2018-06-17T12:03:57.526Z,1.30
2018-06-17T12:06:26.662Z,1.30
2018-06-17T12:08:56.175Z,1.90
2018-06-17T12:20:36.333Z,0.80
2018-06-17T12:23:05.427Z,1.60
2018-06-17T12:25:34.512Z,1.13
2018-06-17T12:28:05.819Z,1.90
2018-06-17T12:43:23.972Z,1.20
2018-06-17T12:46:08.772Z,1.60
2018-06-17T13:06:42.822Z,4.43
2018-06-17T13:09:13.016Z,4.20
2018-06-17T13:26:59.966Z,6.27
2018-06-17T13:29:32.939Z,11.43
2018-06-17T13:32:02.203Z,8.60
2018-06-17T13:49:36.569Z,10.37
2018-06-17T13:52:08.542Z,12.83
2018-06-17T13:54:54.569Z,12.93
2018-06-17T14:09:35.590Z,73.23
2018-06-17T14:12:04.753Z,36.47
2018-06-17T14:14:34.047Z,34.27
2018-06-17T14:32:16.442Z,15.70
2018-06-17T14:34:45.431Z,14.10
2018-06-17T14:37:16.486Z,10.27
2018-06-17T14:49:18.769Z,14.77
2018-06-17T14:56:56.331Z,15.73
2018-06-17T14:59:25.313Z,11.40
2018-06-17T15:01:57.034Z,19.50
2018-06-17T15:04:35.454Z,14.80
2018-06-17T15:07:17.644Z,14.60
2018-06-17T15:09:50.942Z,16.37
2018-06-17T15:12:25.642Z,14.43
2018-06-17T15:15:01.355Z,10.53
2018-06-17T15:17:35.195Z,18.63
2018-06-17T15:20:05.087Z,17.57
2018-06-17T15:22:33.911Z,10.97
2018-06-17T15:25:03.116Z,16.87
2018-06-17T15:27:32.588Z,18.07
2018-06-17T15:30:10.552Z,11.90
2018-06-17T15:32:44.879Z,10.83
2018-06-17T15:35:21.296Z,10.13
2018-06-17T15:37:55.351Z,11.03
2018-06-17T15:40:29.209Z,13.13
2018-06-17T15:42:58.126Z,12.90
2018-06-17T15:54:17.157Z,17.40
2018-06-17T15:56:46.321Z,13.00
2018-06-17T15:59:15.332Z,13.63
2018-06-17T16:04:40.964Z,13.17
2018-06-17T16:25:58.294Z,15.90
2018-06-17T16:28:27.974Z,10.57
2018-06-17T16:30:57.078Z,17.20
2018-06-17T16:33:25.906Z,18.77
2018-06-17T16:35:54.970Z,15.63
2018-06-17T16:47:19.779Z,19.57
2018-06-17T16:49:48.566Z,16.30
2018-06-17T16:52:22.626Z,24.90
2018-06-17T17:03:49.451Z,20.93
2018-06-17T17:06:18.403Z,21.00
2018-06-17T17:08:47.443Z,25.37
2018-06-17T17:11:21.671Z,22.47
2018-06-17T17:22:51.683Z,22.33
2018-06-17T17:25:21.811Z,26.33
2018-06-17T17:27:52.488Z,19.60
2018-06-17T17:42:34.082Z,25.10
2018-06-17T17:45:07.113Z,22.73
2018-06-17T17:47:36.375Z,29.87
2018-06-17T18:05:26.729Z,21.70
2018-06-17T18:07:56.702Z,15.87
2018-06-17T18:10:26.249Z,24.57
2018-06-17T18:25:29.096Z,15.77
2018-06-17T18:28:03.669Z,18.43
2018-06-17T18:30:37.756Z,12.70
2018-06-17T18:51:24.700Z,34.47
2018-06-17T18:53:54.618Z,36.97
2018-06-17T18:56:34.105Z,34.17
2018-06-17T19:08:17.650Z,38.37
2018-06-17T19:12:56.332Z,34.60
2018-06-17T22:34:20.708Z,13.33
2018-06-17T23:26:35.902Z,14.60
2018-06-17T23:51:14.590Z,17.23
